Terminal Aerodrome Forecast
Issued by NWS

Home | Current Version | Previous Version | Graphics & Text | Print | Product List | Glossary On
Versions: 1 2 3 4 5 6 7 8 9 10 11 12 13 14 15 16 17 18 19 20 21 22 23 24 25 26 27 28 29 30 31 32 33 34
000
FTUS43 KLOT 211124
TAFMDW
TAF
KMDW 211124Z 2112/2212 16009KT 3SM BR BKN006 BKN012
      TEMPO 2112/2114 1 1/2SM BR
     FM211430 17010KT P6SM SCT020
     FM211700 20012G18KT P6SM FEW025 SCT200
     FM220000 18005KT 6SM BR FEW010 BKN150
     FM220500 VRB03KT 3SM BR BKN007 BKN025
     FM220800 06004KT 3/4SM BR OVC004=

USA.gov is the U.S. government's official web portal to all federal, state and local government web resources and services.